sensor_id;sensor_type;location;lat;lon;timestamp;pressure;altitude;pressure_sealevel;temperature;humidity
50672;BME280;46021;55.882;37.654;2023-10-13T00:00:47;98090.38;;;6.86;82.93
50672;BME280;46021;55.882;37.654;2023-10-13T00:03:13;98086.91;;;6.87;83.13
50672;BME280;46021;55.882;37.654;2023-10-13T00:05:44;98095.72;;;6.82;83.20
50672;BME280;46021;55.882;37.654;2023-10-13T00:08:11;98097.50;;;6.80;83.79
50672;BME280;46021;55.882;37.654;2023-10-13T00:10:40;98112.91;;;6.83;83.63
50672;BME280;46021;55.882;37.654;2023-10-13T00:13:07;98095.00;;;6.79;84.13
50672;BME280;46021;55.882;37.654;2023-10-13T00:15:38;98112.84;;;6.85;84.40
50672;BME280;46021;55.882;37.654;2023-10-13T00:18:10;98106.75;;;6.86;84.23
50672;BME280;46021;55.882;37.654;2023-10-13T00:20:40;98115.06;;;6.94;84.65
50672;BME280;46021;55.882;37.654;2023-10-13T00:23:12;98112.25;;;6.99;85.12
50672;BME280;46021;55.882;37.654;2023-10-13T00:25:40;98117.13;;;7.07;84.60
50672;BME280;46021;55.882;37.654;2023-10-13T00:28:15;98121.13;;;7.14;84.55
50672;BME280;46021;55.882;37.654;2023-10-13T00:30:49;98121.28;;;7.11;84.38
50672;BME280;46021;55.882;37.654;2023-10-13T00:33:18;98119.47;;;7.13;84.59
50672;BME280;46021;55.882;37.654;2023-10-13T00:35:45;98115.94;;;7.14;83.85
50672;BME280;46021;55.882;37.654;2023-10-13T00:38:12;98108.19;;;7.14;83.36
50672;BME280;46021;55.882;37.654;2023-10-13T00:40:41;98119.31;;;7.16;82.39
50672;BME280;46021;55.882;37.654;2023-10-13T00:43:09;98126.97;;;7.19;82.64
50672;BME280;46021;55.882;37.654;2023-10-13T00:45:55;98128.72;;;7.18;82.47
50672;BME280;46021;55.882;37.654;2023-10-13T00:48:23;98141.53;;;7.21;81.80
50672;BME280;46021;55.882;37.654;2023-10-13T00:50:56;98135.19;;;7.29;82.28
50672;BME280;46021;55.882;37.654;2023-10-13T00:53:25;98148.19;;;7.27;82.15
50672;BME280;46021;55.882;37.654;2023-10-13T00:55:52;98139.38;;;7.31;81.13
50672;BME280;46021;55.882;37.654;2023-10-13T00:58:21;98125.66;;;7.29;81.08
50672;BME280;46021;55.882;37.654;2023-10-13T01:00:48;98134.28;;;7.30;81.03
50672;BME280;46021;55.882;37.654;2023-10-13T01:03:21;98145.22;;;7.36;81.17
50672;BME280;46021;55.882;37.654;2023-10-13T01:05:51;98145.09;;;7.39;80.28
50672;BME280;46021;55.882;37.654;2023-10-13T01:08:30;98133.81;;;7.40;81.25
50672;BME280;46021;55.882;37.654;2023-10-13T01:10:59;98145.72;;;7.45;80.78
50672;BME280;46021;55.882;37.654;2023-10-13T01:13:26;98149.88;;;7.49;81.49
50672;BME280;46021;55.882;37.654;2023-10-13T01:15:52;98153.44;;;7.46;81.13
50672;BME280;46021;55.882;37.654;2023-10-13T01:18:19;98154.00;;;7.53;81.74
50672;BME280;46021;55.882;37.654;2023-10-13T01:20:45;98171.31;;;7.52;82.15
50672;BME280;46021;55.882;37.654;2023-10-13T01:23:19;98183.97;;;7.39;82.36
50672;BME280;46021;55.882;37.654;2023-10-13T01:25:44;98179.69;;;7.18;82.78
50672;BME280;46021;55.882;37.654;2023-10-13T01:28:11;98190.97;;;6.96;82.19
50672;BME280;46021;55.882;37.654;2023-10-13T01:30:41;98175.44;;;6.74;81.97
50672;BME280;46021;55.882;37.654;2023-10-13T01:33:08;98180.53;;;6.55;81.67
50672;BME280;46021;55.882;37.654;2023-10-13T01:35:36;98179.50;;;6.37;81.42
50672;BME280;46021;55.882;37.654;2023-10-13T01:38:07;98179.19;;;6.23;82.30
50672;BME280;46021;55.882;37.654;2023-10-13T01:40:36;98180.28;;;6.17;81.91
50672;BME280;46021;55.882;37.654;2023-10-13T01:43:03;98176.78;;;6.18;82.18
50672;BME280;46021;55.882;37.654;2023-10-13T01:45:30;98177.63;;;6.19;81.89
50672;BME280;46021;55.882;37.654;2023-10-13T01:47:57;98179.69;;;6.11;82.34
50672;BME280;46021;55.882;37.654;2023-10-13T01:50:22;98184.13;;;6.07;82.21
50672;BME280;46021;55.882;37.654;2023-10-13T01:52:55;98187.50;;;6.09;82.42
50672;BME280;46021;55.882;37.654;2023-10-13T01:55:31;98186.50;;;6.12;82.33
50672;BME280;46021;55.882;37.654;2023-10-13T01:58:10;98187.25;;;6.15;82.56
50672;BME280;46021;55.882;37.654;2023-10-13T02:00:41;98178.69;;;6.13;83.19
50672;BME280;46021;55.882;37.654;2023-10-13T02:03:08;98184.72;;;6.14;83.60
50672;BME280;46021;55.882;37.654;2023-10-13T02:05:40;98190.06;;;6.09;84.02
50672;BME280;46021;55.882;37.654;2023-10-13T02:08:09;98190.19;;;6.06;84.67
50672;BME280;46021;55.882;37.654;2023-10-13T02:10:43;98193.59;;;6.07;84.95
50672;BME280;46021;55.882;37.654;2023-10-13T02:13:13;98194.56;;;6.04;85.15
50672;BME280;46021;55.882;37.654;2023-10-13T02:15:43;98194.13;;;6.16;85.20
50672;BME280;46021;55.882;37.654;2023-10-13T02:18:13;98185.34;;;6.20;85.16
50672;BME280;46021;55.882;37.654;2023-10-13T02:20:39;98187.78;;;6.23;85.48
50672;BME280;46021;55.882;37.654;2023-10-13T02:23:11;98183.28;;;6.29;85.50
50672;BME280;46021;55.882;37.654;2023-10-13T02:25:37;98187.56;;;6.30;85.69
50672;BME280;46021;55.882;37.654;2023-10-13T02:28:11;98189.91;;;6.36;86.07
50672;BME280;46021;55.882;37.654;2023-10-13T02:30:41;98207.69;;;6.45;86.18
50672;BME280;46021;55.882;37.654;2023-10-13T02:33:11;98199.06;;;6.44;86.15
50672;BME280;46021;55.882;37.654;2023-10-13T02:35:37;98207.69;;;6.45;85.87
50672;BME280;46021;55.882;37.654;2023-10-13T02:38:08;98203.41;;;6.44;85.83
50672;BME280;46021;55.882;37.654;2023-10-13T02:40:37;98214.53;;;6.46;86.54
50672;BME280;46021;55.882;37.654;2023-10-13T02:43:04;98220.84;;;6.39;86.42
50672;BME280;46021;55.882;37.654;2023-10-13T02:45:32;98206.81;;;6.44;86.72
50672;BME280;46021;55.882;37.654;2023-10-13T02:48:02;98212.44;;;6.34;86.20
50672;BME280;46021;55.882;37.654;2023-10-13T02:50:39;98200.56;;;6.28;86.27
50672;BME280;46021;55.882;37.654;2023-10-13T02:53:09;98214.38;;;6.27;85.47
50672;BME280;46021;55.882;37.654;2023-10-13T02:55:38;98209.16;;;6.29;85.67
50672;BME280;46021;55.882;37.654;2023-10-13T02:58:05;98209.28;;;6.25;85.29
50672;BME280;46021;55.882;37.654;2023-10-13T03:00:34;98218.78;;;6.25;85.04
50672;BME280;46021;55.882;37.654;2023-10-13T03:03:00;98209.41;;;6.22;84.62
50672;BME280;46021;55.882;37.654;2023-10-13T03:05:27;98210.97;;;6.27;84.57
50672;BME280;46021;55.882;37.654;2023-10-13T03:07:58;98210.88;;;6.30;84.60
50672;BME280;46021;55.882;37.654;2023-10-13T03:10:24;98224.44;;;6.35;84.58
50672;BME280;46021;55.882;37.654;2023-10-13T03:12:54;98215.81;;;6.36;84.00
50672;BME280;46021;55.882;37.654;2023-10-13T03:15:21;98223.56;;;6.36;83.88
50672;BME280;46021;55.882;37.654;2023-10-13T03:17:54;98221.66;;;6.41;83.98
50672;BME280;46021;55.882;37.654;2023-10-13T03:20:23;98219.28;;;6.35;83.66
50672;BME280;46021;55.882;37.654;2023-10-13T03:22:57;98224.34;;;6.38;83.51
50672;BME280;46021;55.882;37.654;2023-10-13T03:25:24;98228.56;;;6.40;83.35
50672;BME280;46021;55.882;37.654;2023-10-13T03:27:55;98229.16;;;6.47;83.61
50672;BME280;46021;55.882;37.654;2023-10-13T03:30:30;98234.34;;;6.47;82.90
50672;BME280;46021;55.882;37.654;2023-10-13T03:33:01;98231.75;;;6.47;82.93
50672;BME280;46021;55.882;37.654;2023-10-13T03:35:32;98240.25;;;6.51;83.48
50672;BME280;46021;55.882;37.654;2023-10-13T03:38:05;98235.19;;;6.48;83.13
50672;BME280;46021;55.882;37.654;2023-10-13T03:40:40;98254.13;;;6.48;82.88
50672;BME280;46021;55.882;37.654;2023-10-13T03:43:07;98255.94;;;6.46;82.72
50672;BME280;46021;55.882;37.654;2023-10-13T03:45:35;98253.59;;;6.40;82.77
50672;BME280;46021;55.882;37.654;2023-10-13T03:48:04;98260.56;;;6.38;82.72
50672;BME280;46021;55.882;37.654;2023-10-13T03:50:35;98271.66;;;6.41;83.17
50672;BME280;46021;55.882;37.654;2023-10-13T03:53:04;98275.03;;;6.43;82.46
50672;BME280;46021;55.882;37.654;2023-10-13T03:55:38;98272.50;;;6.42;82.76
50672;BME280;46021;55.882;37.654;2023-10-13T03:58:05;98272.59;;;6.39;82.62
50672;BME280;46021;55.882;37.654;2023-10-13T04:00:36;98283.63;;;6.44;82.79
50672;BME280;46021;55.882;37.654;2023-10-13T04:03:04;98294.00;;;6.44;82.74
50672;BME280;46021;55.882;37.654;2023-10-13T04:05:35;98298.03;;;6.51;82.40
50672;BME280;46021;55.882;37.654;2023-10-13T04:08:07;98303.66;;;6.62;81.95
50672;BME280;46021;55.882;37.654;2023-10-13T04:10:52;98314.84;;;6.63;81.89
50672;BME280;46021;55.882;37.654;2023-10-13T04:13:36;98317.16;;;6.71;81.55
50672;BME280;46021;55.882;37.654;2023-10-13T04:16:21;98323.69;;;6.81;81.07
50672;BME280;46021;55.882;37.654;2023-10-13T04:19:03;98325.28;;;6.83;80.56
50672;BME280;46021;55.882;37.654;2023-10-13T04:21:35;98324.47;;;6.83;80.41
50672;BME280;46021;55.882;37.654;2023-10-13T04:24:22;98337.22;;;6.88;79.31
50672;BME280;46021;55.882;37.654;2023-10-13T04:27:24;98322.53;;;6.88;79.60
50672;BME280;46021;55.882;37.654;2023-10-13T04:30:06;98344.84;;;6.92;79.36
50672;BME280;46021;55.882;37.654;2023-10-13T04:32:49;98341.22;;;6.96;79.39
50672;BME280;46021;55.882;37.654;2023-10-13T04:35:30;98356.09;;;6.91;78.85
50672;BME280;46021;55.882;37.654;2023-10-13T04:38:01;98351.69;;;6.93;78.60
50672;BME280;46021;55.882;37.654;2023-10-13T04:40:45;98360.03;;;7.01;78.79
50672;BME280;46021;55.882;37.654;2023-10-13T04:43:24;98366.94;;;7.01;78.90
50672;BME280;46021;55.882;37.654;2023-10-13T04:46:09;98372.53;;;7.12;78.38
50672;BME280;46021;55.882;37.654;2023-10-13T04:48:50;98366.63;;;7.09;78.15
50672;BME280;46021;55.882;37.654;2023-10-13T04:51:22;98377.13;;;7.06;78.02
50672;BME280;46021;55.882;37.654;2023-10-13T04:54:15;98395.81;;;7.14;77.50
50672;BME280;46021;55.882;37.654;2023-10-13T04:56:56;98388.97;;;7.13;76.98
50672;BME280;46021;55.882;37.654;2023-10-13T04:59:40;98393.13;;;7.17;76.38
50672;BME280;46021;55.882;37.654;2023-10-13T05:02:20;98391.25;;;7.20;76.55
50672;BME280;46021;55.882;37.654;2023-10-13T05:05:14;98391.88;;;7.26;75.93
50672;BME280;46021;55.882;37.654;2023-10-13T05:08:00;98392.09;;;7.21;76.17
50672;BME280;46021;55.882;37.654;2023-10-13T05:10:45;98393.13;;;7.17;75.27
50672;BME280;46021;55.882;37.654;2023-10-13T05:13:30;98407.38;;;7.27;75.56
50672;BME280;46021;55.882;37.654;2023-10-13T05:16:15;98402.44;;;7.21;74.11
50672;BME280;46021;55.882;37.654;2023-10-13T05:18:59;98401.53;;;7.22;74.15
50672;BME280;46021;55.882;37.654;2023-10-13T05:21:42;98407.94;;;7.13;74.43
50672;BME280;46021;55.882;37.654;2023-10-13T05:24:26;98412.94;;;7.18;75.55
50672;BME280;46021;55.882;37.654;2023-10-13T05:27:10;98426.66;;;7.20;74.00
50672;BME280;46021;55.882;37.654;2023-10-13T05:29:56;98432.78;;;7.19;74.14
50672;BME280;46021;55.882;37.654;2023-10-13T05:32:40;98440.78;;;7.13;73.61
50672;BME280;46021;55.882;37.654;2023-10-13T05:35:25;98453.81;;;7.33;73.56
50672;BME280;46021;55.882;37.654;2023-10-13T05:38:09;98444.69;;;7.47;73.62
50672;BME280;46021;55.882;37.654;2023-10-13T05:40:53;98449.25;;;7.40;73.20
50672;BME280;46021;55.882;37.654;2023-10-13T05:43:37;98463.59;;;7.49;72.96
50672;BME280;46021;55.882;37.654;2023-10-13T05:46:22;98465.28;;;7.50;73.86
50672;BME280;46021;55.882;37.654;2023-10-13T05:49:09;98461.41;;;7.38;72.54
50672;BME280;46021;55.882;37.654;2023-10-13T05:51:52;98470.41;;;7.51;72.32
50672;BME280;46021;55.882;37.654;2023-10-13T05:54:23;98483.59;;;7.67;72.61
50672;BME280;46021;55.882;37.654;2023-10-13T05:57:07;98489.78;;;7.65;72.65
50672;BME280;46021;55.882;37.654;2023-10-13T06:00:00;98487.22;;;7.63;71.91
50672;BME280;46021;55.882;37.654;2023-10-13T06:02:45;98483.97;;;7.58;72.31
50672;BME280;46021;55.882;37.654;2023-10-13T06:05:30;98497.06;;;7.55;71.68
50672;BME280;46021;55.882;37.654;2023-10-13T06:08:13;98496.28;;;7.53;71.05
50672;BME280;46021;55.882;37.654;2023-10-13T06:11:00;98504.22;;;7.48;71.98
50672;BME280;46021;55.882;37.654;2023-10-13T06:13:45;98507.31;;;7.58;71.77
50672;BME280;46021;55.882;37.654;2023-10-13T06:16:29;98512.56;;;7.56;71.80
50672;BME280;46021;55.882;37.654;2023-10-13T06:19:14;98526.44;;;7.55;71.75
50672;BME280;46021;55.882;37.654;2023-10-13T06:21:58;98528.88;;;7.60;71.74
50672;BME280;46021;55.882;37.654;2023-10-13T06:24:42;98522.28;;;7.51;71.36
50672;BME280;46021;55.882;37.654;2023-10-13T06:27:26;98519.97;;;7.44;71.08
50672;BME280;46021;55.882;37.654;2023-10-13T06:30:11;98523.53;;;7.41;71.70
50672;BME280;46021;55.882;37.654;2023-10-13T06:32:38;98524.63;;;7.35;71.08
50672;BME280;46021;55.882;37.654;2023-10-13T06:35:07;98527.84;;;7.40;70.18
50672;BME280;46021;55.882;37.654;2023-10-13T06:37:44;98535.47;;;7.45;69.86
50672;BME280;46021;55.882;37.654;2023-10-13T06:40:11;98531.97;;;7.46;69.40
50672;BME280;46021;55.882;37.654;2023-10-13T06:42:47;98535.00;;;7.57;69.16
50672;BME280;46021;55.882;37.654;2023-10-13T06:45:14;98536.84;;;7.54;69.20
50672;BME280;46021;55.882;37.654;2023-10-13T06:47:42;98536.06;;;7.52;68.31
50672;BME280;46021;55.882;37.654;2023-10-13T06:50:10;98549.78;;;7.55;68.00
50672;BME280;46021;55.882;37.654;2023-10-13T06:52:41;98553.81;;;7.63;67.55
50672;BME280;46021;55.882;37.654;2023-10-13T06:55:08;98558.09;;;7.64;67.76
50672;BME280;46021;55.882;37.654;2023-10-13T06:57:37;98551.03;;;7.67;66.77
50672;BME280;46021;55.882;37.654;2023-10-13T07:00:08;98564.69;;;7.72;66.79
50672;BME280;46021;55.882;37.654;2023-10-13T07:02:44;98565.22;;;7.80;66.08
50672;BME280;46021;55.882;37.654;2023-10-13T07:05:12;98568.44;;;7.87;66.04
50672;BME280;46021;55.882;37.654;2023-10-13T07:07:39;98579.00;;;8.05;66.05
50672;BME280;46021;55.882;37.654;2023-10-13T07:10:07;98579.63;;;8.11;65.71
50672;BME280;46021;55.882;37.654;2023-10-13T07:12:36;98570.69;;;8.18;65.86
50672;BME280;46021;55.882;37.654;2023-10-13T07:15:07;98585.81;;;8.29;64.50
50672;BME280;46021;55.882;37.654;2023-10-13T07:17:44;98593.25;;;8.38;63.52
50672;BME280;46021;55.882;37.654;2023-10-13T07:20:13;98588.56;;;8.48;63.54
50672;BME280;46021;55.882;37.654;2023-10-13T07:22:49;98599.47;;;8.34;64.11
50672;BME280;46021;55.882;37.654;2023-10-13T07:25:27;98621.41;;;8.49;63.47
50672;BME280;46021;55.882;37.654;2023-10-13T07:27:58;98618.47;;;8.58;64.34
50672;BME280;46021;55.882;37.654;2023-10-13T07:30:25;98620.13;;;8.59;63.06
50672;BME280;46021;55.882;37.654;2023-10-13T07:32:53;98635.97;;;8.53;63.40
50672;BME280;46021;55.882;37.654;2023-10-13T07:35:24;98629.13;;;8.29;62.39
50672;BME280;46021;55.882;37.654;2023-10-13T07:37:51;98640.28;;;8.31;62.70
50672;BME280;46021;55.882;37.654;2023-10-13T07:40:19;98632.41;;;8.34;62.94
50672;BME280;46021;55.882;37.654;2023-10-13T07:43:05;98641.19;;;8.30;62.90
50672;BME280;46021;55.882;37.654;2023-10-13T07:45:35;98641.41;;;8.47;62.05
50672;BME280;46021;55.882;37.654;2023-10-13T07:48:02;98645.81;;;8.45;62.32
50672;BME280;46021;55.882;37.654;2023-10-13T07:50:34;98654.41;;;8.47;61.75
50672;BME280;46021;55.882;37.654;2023-10-13T07:53:01;98651.19;;;8.63;60.88
50672;BME280;46021;55.882;37.654;2023-10-13T07:55:44;98654.44;;;8.68;61.16
50672;BME280;46021;55.882;37.654;2023-10-13T07:58:12;98664.66;;;8.72;60.96
50672;BME280;46021;55.882;37.654;2023-10-13T08:00:39;98677.84;;;8.88;60.37
50672;BME280;46021;55.882;37.654;2023-10-13T08:03:13;98681.63;;;9.02;60.31
50672;BME280;46021;55.882;37.654;2023-10-13T08:05:58;98696.19;;;8.85;59.99
50672;BME280;46021;55.882;37.654;2023-10-13T08:08:30;98676.94;;;8.89;59.68
50672;BME280;46021;55.882;37.654;2023-10-13T08:11:03;98687.94;;;9.16;59.66
50672;BME280;46021;55.882;37.654;2023-10-13T08:13:37;98703.22;;;9.45;59.73
50672;BME280;46021;55.882;37.654;2023-10-13T08:16:04;98711.41;;;9.56;58.57
50672;BME280;46021;55.882;37.654;2023-10-13T08:18:34;98719.47;;;9.70;58.02
50672;BME280;46021;55.882;37.654;2023-10-13T08:21:03;98716.22;;;9.65;57.29
50672;BME280;46021;55.882;37.654;2023-10-13T08:23:31;98726.91;;;9.59;57.38
50672;BME280;46021;55.882;37.654;2023-10-13T08:26:15;98723.63;;;9.33;57.14
50672;BME280;46021;55.882;37.654;2023-10-13T08:29:09;98723.13;;;9.66;57.16
50672;BME280;46021;55.882;37.654;2023-10-13T08:31:50;98736.28;;;10.22;56.63
50672;BME280;46021;55.882;37.654;2023-10-13T08:34:39;98722.66;;;11.43;53.67
50672;BME280;46021;55.882;37.654;2023-10-13T08:37:25;98721.88;;;12.73;49.67
50672;BME280;46021;55.882;37.654;2023-10-13T08:39:55;98743.47;;;13.53;48.31
50672;BME280;46021;55.882;37.654;2023-10-13T08:42:48;98745.00;;;14.00;46.53
50672;BME280;46021;55.882;37.654;2023-10-13T08:45:37;98749.97;;;13.32;46.41
50672;BME280;46021;55.882;37.654;2023-10-13T08:48:25;98760.91;;;12.92;47.91
50672;BME280;46021;55.882;37.654;2023-10-13T08:50:58;98761.22;;;13.02;47.38
50672;BME280;46021;55.882;37.654;2023-10-13T08:53:37;98760.66;;;12.33;48.01
50672;BME280;46021;55.882;37.654;2023-10-13T08:56:17;98766.41;;;12.56;49.19
50672;BME280;46021;55.882;37.654;2023-10-13T08:58:58;98765.59;;;13.17;48.49
50672;BME280;46021;55.882;37.654;2023-10-13T09:01:36;98771.28;;;13.56;47.14
50672;BME280;46021;55.882;37.654;2023-10-13T09:04:11;98766.53;;;14.06;46.62
50672;BME280;46021;55.882;37.654;2023-10-13T09:06:47;98766.28;;;13.96;46.02
50672;BME280;46021;55.882;37.654;2023-10-13T09:09:26;98779.47;;;14.23;45.46
50672;BME280;46021;55.882;37.654;2023-10-13T09:12:00;98778.19;;;15.13;44.27
50672;BME280;46021;55.882;37.654;2023-10-13T09:14:35;98786.19;;;16.54;41.36
50672;BME280;46021;55.882;37.654;2023-10-13T09:17:04;98778.06;;;17.43;38.74
50672;BME280;46021;55.882;37.654;2023-10-13T09:19:46;98803.41;;;16.71;37.88
50672;BME280;46021;55.882;37.654;2023-10-13T09:22:24;98774.38;;;17.45;39.34
50672;BME280;46021;55.882;37.654;2023-10-13T09:25:00;98791.06;;;17.92;38.50
50672;BME280;46021;55.882;37.654;2023-10-13T09:27:26;98799.59;;;18.64;36.61
50672;BME280;46021;55.882;37.654;2023-10-13T09:29:57;98795.88;;;18.21;35.57
50672;BME280;46021;55.882;37.654;2023-10-13T09:32:24;98810.44;;;17.21;36.97
50672;BME280;46021;55.882;37.654;2023-10-13T09:34:53;98813.78;;;16.23;38.30
50672;BME280;46021;55.882;37.654;2023-10-13T09:37:19;98829.19;;;15.36;39.36
50672;BME280;46021;55.882;37.654;2023-10-13T09:39:47;98828.72;;;14.18;41.57
50672;BME280;46021;55.882;37.654;2023-10-13T09:42:18;98831.13;;;13.16;43.58
50672;BME280;46021;55.882;37.654;2023-10-13T09:44:45;98834.53;;;12.53;45.17
50672;BME280;46021;55.882;37.654;2023-10-13T09:47:18;98821.34;;;11.70;46.84
50672;BME280;46021;55.882;37.654;2023-10-13T09:49:51;98823.97;;;11.70;47.99
50672;BME280;46021;55.882;37.654;2023-10-13T09:52:23;98834.91;;;12.78;46.87
50672;BME280;46021;55.882;37.654;2023-10-13T09:54:53;98847.03;;;14.03;44.77
50672;BME280;46021;55.882;37.654;2023-10-13T09:57:26;98838.94;;;15.62;41.79
50672;BME280;46021;55.882;37.654;2023-10-13T10:00:06;98845.78;;;16.30;40.33
50672;BME280;46021;55.882;37.654;2023-10-13T10:02:53;98847.19;;;16.85;38.62
50672;BME280;46021;55.882;37.654;2023-10-13T10:05:25;98839.56;;;17.54;37.98
50672;BME280;46021;55.882;37.654;2023-10-13T10:07:55;98849.78;;;17.70;36.95
50672;BME280;46021;55.882;37.654;2023-10-13T10:10:22;98843.31;;;17.99;36.64
50672;BME280;46021;55.882;37.654;2023-10-13T10:12:50;98847.78;;;18.21;35.84
50672;BME280;46021;55.882;37.654;2023-10-13T10:15:20;98855.13;;;18.74;35.96
50672;BME280;46021;55.882;37.654;2023-10-13T10:17:53;98851.06;;;20.00;34.59
50672;BME280;46021;55.882;37.654;2023-10-13T10:20:29;98863.66;;;20.39;33.69
50672;BME280;46021;55.882;37.654;2023-10-13T10:23:08;98873.31;;;20.40;32.13
50672;BME280;46021;55.882;37.654;2023-10-13T10:25:43;98877.63;;;20.72;31.94
50672;BME280;46021;55.882;37.654;2023-10-13T10:28:11;98856.44;;;20.72;31.36
50672;BME280;46021;55.882;37.654;2023-10-13T10:30:41;98876.72;;;20.31;31.48
50672;BME280;46021;55.882;37.654;2023-10-13T10:33:09;98881.19;;;19.88;32.42
50672;BME280;46021;55.882;37.654;2023-10-13T10:35:41;98880.69;;;18.84;32.54
50672;BME280;46021;55.882;37.654;2023-10-13T10:38:08;98879.44;;;18.21;33.64
50672;BME280;46021;55.882;37.654;2023-10-13T10:40:51;98882.69;;;18.13;33.60
50672;BME280;46021;55.882;37.654;2023-10-13T10:43:26;98891.56;;;18.35;33.90
50672;BME280;46021;55.882;37.654;2023-10-13T10:45:54;98897.59;;;18.48;33.52
50672;BME280;46021;55.882;37.654;2023-10-13T10:48:25;98902.91;;;18.12;33.69
50672;BME280;46021;55.882;37.654;2023-10-13T10:50:58;98886.94;;;18.03;33.65
50672;BME280;46021;55.882;37.654;2023-10-13T10:53:33;98897.56;;;17.42;33.94
50672;BME280;46021;55.882;37.654;2023-10-13T10:56:09;98908.38;;;17.74;34.14
50672;BME280;46021;55.882;37.654;2023-10-13T10:58:45;98906.94;;;17.70;33.64
50672;BME280;46021;55.882;37.654;2023-10-13T11:01:12;98925.22;;;16.86;34.33
50672;BME280;46021;55.882;37.654;2023-10-13T11:03:52;98924.31;;;17.48;34.56
50672;BME280;46021;55.882;37.654;2023-10-13T11:06:22;98929.47;;;17.26;35.08
50672;BME280;46021;55.882;37.654;2023-10-13T11:08:50;98929.78;;;17.58;34.11
50672;BME280;46021;55.882;37.654;2023-10-13T11:11:29;98932.38;;;17.34;33.64
50672;BME280;46021;55.882;37.654;2023-10-13T11:14:01;98918.88;;;17.63;33.54
50672;BME280;46021;55.882;37.654;2023-10-13T11:16:45;98933.50;;;17.43;33.67
50672;BME280;46021;55.882;37.654;2023-10-13T11:19:16;98946.06;;;16.89;33.76
50672;BME280;46021;55.882;37.654;2023-10-13T11:21:46;98939.59;;;17.56;32.73
50672;BME280;46021;55.882;37.654;2023-10-13T11:24:14;98950.56;;;16.36;34.56
50672;BME280;46021;55.882;37.654;2023-10-13T11:26:43;98955.78;;;15.83;34.67
50672;BME280;46021;55.882;37.654;2023-10-13T11:29:14;98960.78;;;16.01;35.14
50672;BME280;46021;55.882;37.654;2023-10-13T11:31:44;98955.28;;;16.44;34.73
50672;BME280;46021;55.882;37.654;2023-10-13T11:34:11;98963.63;;;16.50;33.81
50672;BME280;46021;55.882;37.654;2023-10-13T11:36:41;98970.16;;;16.45;34.07
50672;BME280;46021;55.882;37.654;2023-10-13T11:39:09;98968.69;;;15.59;35.30
50672;BME280;46021;55.882;37.654;2023-10-13T11:41:42;98962.44;;;15.47;35.78
50672;BME280;46021;55.882;37.654;2023-10-13T11:44:16;98971.06;;;15.91;35.35
50672;BME280;46021;55.882;37.654;2023-10-13T11:46:51;98970.09;;;16.19;35.29
50672;BME280;46021;55.882;37.654;2023-10-13T11:49:40;98982.34;;;17.23;34.10
50672;BME280;46021;55.882;37.654;2023-10-13T11:52:07;98982.28;;;17.48;33.08
50672;BME280;46021;55.882;37.654;2023-10-13T11:54:43;98976.97;;;17.61;33.59
50672;BME280;46021;55.882;37.654;2023-10-13T11:57:12;98975.63;;;17.92;32.84
50672;BME280;46021;55.882;37.654;2023-10-13T11:59:42;98991.16;;;18.44;32.57
50672;BME280;46021;55.882;37.654;2023-10-13T12:02:19;98982.19;;;18.58;32.94
50672;BME280;46021;55.882;37.654;2023-10-13T12:05:03;98989.59;;;18.99;32.80
50672;BME280;46021;55.882;37.654;2023-10-13T12:07:37;98980.44;;;19.15;33.76
50672;BME280;46021;55.882;37.654;2023-10-13T12:10:12;98971.88;;;18.55;33.28
50672;BME280;46021;55.882;37.654;2023-10-13T12:12:46;98962.88;;;17.12;33.96
50672;BME280;46021;55.882;37.654;2023-10-13T12:15:18;98983.78;;;16.24;35.04
50672;BME280;46021;55.882;37.654;2023-10-13T12:17:59;98984.19;;;15.49;35.78
50672;BME280;46021;55.882;37.654;2023-10-13T12:20:28;98980.25;;;15.42;36.06
50672;BME280;46021;55.882;37.654;2023-10-13T12:23:01;98987.34;;;14.84;36.63
50672;BME280;46021;55.882;37.654;2023-10-13T12:25:42;98978.63;;;14.39;36.95
50672;BME280;46021;55.882;37.654;2023-10-13T12:28:23;98994.19;;;14.42;37.08
50672;BME280;46021;55.882;37.654;2023-10-13T12:30:53;98982.84;;;14.41;36.92
50672;BME280;46021;55.882;37.654;2023-10-13T12:33:19;98983.81;;;14.10;37.55
50672;BME280;46021;55.882;37.654;2023-10-13T12:36:02;98994.31;;;13.62;38.28
50672;BME280;46021;55.882;37.654;2023-10-13T12:38:40;98997.03;;;13.45;38.80
50672;BME280;46021;55.882;37.654;2023-10-13T12:41:26;98991.84;;;13.27;39.37
50672;BME280;46021;55.882;37.654;2023-10-13T12:44:09;99003.66;;;13.19;39.70
50672;BME280;46021;55.882;37.654;2023-10-13T12:46:53;98993.34;;;12.82;40.53
50672;BME280;46021;55.882;37.654;2023-10-13T12:49:38;99006.94;;;12.56;41.61
50672;BME280;46021;55.882;37.654;2023-10-13T12:52:23;99007.72;;;12.40;41.84
50672;BME280;46021;55.882;37.654;2023-10-13T12:54:51;99005.53;;;12.48;42.04
50672;BME280;46021;55.882;37.654;2023-10-13T12:57:25;99006.38;;;12.84;41.38
50672;BME280;46021;55.882;37.654;2023-10-13T12:59:52;99006.44;;;13.16;41.11
50672;BME280;46021;55.882;37.654;2023-10-13T13:02:20;99015.63;;;13.07;40.68
50672;BME280;46021;55.882;37.654;2023-10-13T13:04:47;99009.94;;;12.99;40.85
50672;BME280;46021;55.882;37.654;2023-10-13T13:07:19;99014.97;;;12.86;40.77
50672;BME280;46021;55.882;37.654;2023-10-13T13:09:46;99024.78;;;12.65;41.03
50672;BME280;46021;55.882;37.654;2023-10-13T13:12:13;99016.47;;;12.39;41.30
50672;BME280;46021;55.882;37.654;2023-10-13T13:14:42;99017.69;;;12.15;42.48
50672;BME280;46021;55.882;37.654;2023-10-13T13:17:11;99017.16;;;11.89;41.79
50672;BME280;46021;55.882;37.654;2023-10-13T13:19:38;99027.75;;;11.86;42.21
50672;BME280;46021;55.882;37.654;2023-10-13T13:22:05;99038.34;;;11.64;42.38
50672;BME280;46021;55.882;37.654;2023-10-13T13:24:37;99033.28;;;11.61;42.95
50672;BME280;46021;55.882;37.654;2023-10-13T13:27:09;99040.03;;;11.46;43.47
50672;BME280;46021;55.882;37.654;2023-10-13T13:29:39;99035.16;;;11.19;44.25
50672;BME280;46021;55.882;37.654;2023-10-13T13:32:07;99043.91;;;11.18;44.17